LOT6MD EPWA-EKBI
Flight info
| Callsign | LOT6MD |
|---|---|
| Flight time | N/A |
| Altitude | 36000 |
| Route | OLILA L621 SOMOR DCT BILRA DCT SONAL DCT LOKSA |
| Aircraft | E75L/M-SDE3GILORVW/S |
Departure
| Time | 2026-05-04 17:59 |
|---|---|
| Airport | Warsaw Chopin Airport (EPWA) |
Arrival
| Time | N/A |
|---|---|
| Airport | Billund Airport (EKBI) |
| Time | Latitude | Longitude | Altitude | Speed | Heading |
|---|---|---|---|---|---|
| 2026-05-04 17:48 | 52.16911 | 20.97221 | 366 ft | 0 kts | 76° |
| 2026-05-04 17:53 | 52.16911 | 20.97217 | 366 ft | 1 kts | 77° |
| 2026-05-04 17:53 | 52.16908 | 20.97193 | 366 ft | 2 kts | 76° |
| 2026-05-04 17:53 | 52.16904 | 20.97170 | 366 ft | 2 kts | 76° |
| 2026-05-04 17:53 | 52.16901 | 20.97147 | 366 ft | 2 kts | 76° |
| 2026-05-04 17:54 | 52.16897 | 20.97122 | 366 ft | 2 kts | 79° |
| 2026-05-04 17:54 | 52.16896 | 20.97097 | 366 ft | 2 kts | 95° |
| 2026-05-04 17:54 | 52.16899 | 20.97074 | 366 ft | 1 kts | 107° |
| 2026-05-04 17:54 | 52.16901 | 20.97063 | 366 ft | 1 kts | 111° |
| 2026-05-04 17:55 | 52.16902 | 20.97061 | 366 ft | 0 kts | 110° |
| 2026-05-04 17:56 | 52.16885 | 20.97110 | 366 ft | 11 kts | 131° |
| 2026-05-04 17:56 | 52.16827 | 20.97170 | 366 ft | 8 kts | 155° |
| 2026-05-04 17:57 | 52.16776 | 20.97214 | 366 ft | 12 kts | 151° |
| 2026-05-04 17:57 | 52.16683 | 20.97242 | 366 ft | 15 kts | 186° |
| 2026-05-04 17:57 | 52.16599 | 20.97294 | 366 ft | 11 kts | 119° |
| 2026-05-04 17:57 | 52.16551 | 20.97448 | 366 ft | 19 kts | 116° |
| 2026-05-04 17:58 | 52.16493 | 20.97650 | 366 ft | 19 kts | 115° |
| 2026-05-04 17:58 | 52.16414 | 20.97791 | 366 ft | 15 kts | 187° |
| 2026-05-04 17:58 | 52.16327 | 20.97737 | 366 ft | 11 kts | 208° |
| 2026-05-04 17:58 | 52.16315 | 20.97639 | 366 ft | 12 kts | 291° |
| 2026-05-04 17:59 | 52.16511 | 20.96939 | 367 ft | 124 kts | 294° |
| 2026-05-04 17:59 | 52.16979 | 20.95304 | 840 ft | 182 kts | 294° |
| 2026-05-04 17:59 | 52.18106 | 20.91295 | 3316 ft | 209 kts | 293° |
| 2026-05-04 18:00 | 52.18925 | 20.89321 | 4403 ft | 228 kts | 316° |
| 2026-05-04 18:00 | 52.20438 | 20.88271 | 5386 ft | 251 kts | 348° |
| 2026-05-04 18:00 | 52.22147 | 20.87812 | 6600 ft | 259 kts | 342° |
| 2026-05-04 18:00 | 52.23671 | 20.86380 | 7837 ft | 260 kts | 317° |
| 2026-05-04 18:01 | 52.25034 | 20.84476 | 9083 ft | 265 kts | 319° |
| 2026-05-04 18:01 | 52.26510 | 20.82718 | 10274 ft | 270 kts | 322° |
| 2026-05-04 18:01 | 52.28046 | 20.80960 | 11466 ft | 277 kts | 322° |
| 2026-05-04 18:02 | 52.31362 | 20.77191 | 13317 ft | 315 kts | 323° |
| 2026-05-04 18:02 | 52.33217 | 20.75103 | 14116 ft | 337 kts | 323° |
| 2026-05-04 18:02 | 52.35173 | 20.72902 | 15172 ft | 349 kts | 323° |
| 2026-05-04 18:02 | 52.37184 | 20.70640 | 16359 ft | 356 kts | 323° |
| 2026-05-04 18:03 | 52.39212 | 20.68354 | 17536 ft | 362 kts | 323° |
| 2026-05-04 18:03 | 52.41270 | 20.66032 | 18685 ft | 366 kts | 323° |
| 2026-05-04 18:03 | 52.43371 | 20.63660 | 19812 ft | 371 kts | 323° |
| 2026-05-04 18:03 | 52.45496 | 20.61256 | 20895 ft | 375 kts | 323° |
| 2026-05-04 18:04 | 52.47635 | 20.58836 | 21924 ft | 380 kts | 323° |
| 2026-05-04 18:04 | 52.49819 | 20.56359 | 22930 ft | 384 kts | 323° |
| 2026-05-04 18:04 | 52.54239 | 20.51340 | 24820 ft | 392 kts | 323° |
| 2026-05-04 18:05 | 52.56461 | 20.48813 | 25686 ft | 396 kts | 323° |
| 2026-05-04 18:05 | 52.58730 | 20.46228 | 26536 ft | 400 kts | 324° |
| 2026-05-04 18:05 | 52.61013 | 20.43624 | 27345 ft | 404 kts | 324° |
| 2026-05-04 18:05 | 52.63347 | 20.40959 | 28148 ft | 408 kts | 324° |
| 2026-05-04 18:06 | 52.68019 | 20.35560 | 29624 ft | 416 kts | 322° |
| 2026-05-04 18:06 | 52.70133 | 20.32730 | 30283 ft | 419 kts | 317° |
| 2026-05-04 18:06 | 52.72200 | 20.29268 | 30973 ft | 422 kts | 312° |
| 2026-05-04 18:07 | 52.74159 | 20.25670 | 31616 ft | 426 kts | 312° |
| 2026-05-04 18:07 | 52.76144 | 20.22072 | 32236 ft | 430 kts | 313° |
| 2026-05-04 18:07 | 52.78161 | 20.18443 | 32871 ft | 433 kts | 313° |
| 2026-05-04 18:07 | 52.80203 | 20.14735 | 33442 ft | 436 kts | 313° |
| 2026-05-04 18:08 | 52.82215 | 20.10992 | 34093 ft | 437 kts | 311° |
| 2026-05-04 18:08 | 52.84162 | 20.07164 | 34952 ft | 433 kts | 310° |
| 2026-05-04 18:08 | 52.86063 | 20.03360 | 35655 ft | 430 kts | 310° |
| 2026-05-04 18:08 | 52.87971 | 19.99566 | 35918 ft | 432 kts | 311° |
| 2026-05-04 18:09 | 52.95631 | 19.84328 | 35883 ft | 429 kts | 310° |
| 2026-05-04 18:10 | 52.99415 | 19.76758 | 35885 ft | 431 kts | 310° |
| 2026-05-04 18:10 | 53.03237 | 19.69091 | 35885 ft | 432 kts | 310° |
| 2026-05-04 18:11 | 53.07103 | 19.61402 | 35884 ft | 434 kts | 313° |
| 2026-05-04 18:11 | 53.11322 | 19.54316 | 35885 ft | 435 kts | 316° |
| 2026-05-04 18:12 | 53.15419 | 19.47401 | 35885 ft | 436 kts | 315° |
| 2026-05-04 18:12 | 53.19664 | 19.40130 | 35885 ft | 436 kts | 314° |
| 2026-05-04 18:13 | 53.23446 | 19.32330 | 35885 ft | 436 kts | 303° |
| 2026-05-04 18:14 | 53.27956 | 19.19125 | 35885 ft | 437 kts | 301° |
| 2026-05-04 18:14 | 53.31008 | 19.10371 | 35885 ft | 435 kts | 300° |
| 2026-05-04 18:15 | 53.36971 | 18.92826 | 35885 ft | 433 kts | 298° |
| 2026-05-04 18:16 | 53.39917 | 18.84072 | 35885 ft | 434 kts | 298° |
| 2026-05-04 18:16 | 53.42862 | 18.75276 | 35885 ft | 433 kts | 298° |
| 2026-05-04 18:17 | 53.47282 | 18.62003 | 35885 ft | 434 kts | 298° |
| 2026-05-04 18:18 | 53.51676 | 18.48732 | 35885 ft | 434 kts | 298° |
| 2026-05-04 18:18 | 53.54585 | 18.39906 | 35869 ft | 434 kts | 298° |
| 2026-05-04 18:19 | 53.58908 | 18.26725 | 35840 ft | 434 kts | 297° |
| 2026-05-04 18:19 | 53.61811 | 18.17838 | 35831 ft | 434 kts | 297° |
| 2026-05-04 18:20 | 53.64703 | 18.08947 | 35831 ft | 434 kts | 297° |
| 2026-05-04 18:20 | 53.67582 | 18.00068 | 35831 ft | 434 kts | 297° |
| 2026-05-04 18:21 | 53.70462 | 17.91149 | 35864 ft | 433 kts | 297° |
| 2026-05-04 18:21 | 53.73329 | 17.82240 | 35905 ft | 434 kts | 297° |
| 2026-05-04 18:22 | 53.76209 | 17.73257 | 35916 ft | 434 kts | 297° |
| 2026-05-04 18:22 | 53.79077 | 17.64280 | 35914 ft | 434 kts | 297° |
| 2026-05-04 18:23 | 53.81912 | 17.55372 | 35913 ft | 434 kts | 297° |
| 2026-05-04 18:23 | 53.84760 | 17.46389 | 35912 ft | 434 kts | 297° |
| 2026-05-04 18:24 | 53.87602 | 17.37394 | 35912 ft | 434 kts | 297° |
| 2026-05-04 18:24 | 53.90452 | 17.28338 | 35912 ft | 434 kts | 297° |
| 2026-05-04 18:25 | 53.93272 | 17.19346 | 35912 ft | 434 kts | 297° |
| 2026-05-04 18:25 | 53.96101 | 17.10293 | 35912 ft | 434 kts | 297° |
| 2026-05-04 18:26 | 53.98912 | 17.01261 | 35912 ft | 434 kts | 297° |
| 2026-05-04 18:26 | 54.01717 | 16.92214 | 35912 ft | 431 kts | 296° |
| 2026-05-04 18:27 | 54.04480 | 16.83271 | 35912 ft | 428 kts | 296° |
| 2026-05-04 18:27 | 54.07234 | 16.74322 | 35917 ft | 426 kts | 296° |
| 2026-05-04 18:28 | 54.09970 | 16.65399 | 35928 ft | 427 kts | 296° |
| 2026-05-04 18:28 | 54.12718 | 16.56401 | 35944 ft | 427 kts | 296° |
| 2026-05-04 18:29 | 54.15464 | 16.47436 | 35955 ft | 427 kts | 296° |
| 2026-05-04 18:29 | 54.18188 | 16.38428 | 35962 ft | 427 kts | 296° |
| 2026-05-04 18:30 | 54.22252 | 16.24933 | 35966 ft | 427 kts | 296° |